createdAt,value
2018-10-06T00:01:42.543Z,100752.89
2018-10-06T00:04:12.986Z,100750.63
2018-10-06T00:06:43.418Z,100750.19
2018-10-06T00:09:13.860Z,100749.68
2018-10-06T00:11:44.309Z,100748.56
2018-10-06T00:14:14.739Z,100738.07
2018-10-06T00:16:45.416Z,100740.55
2018-10-06T00:19:15.805Z,100730.52
2018-10-06T00:21:46.186Z,100729.27
2018-10-06T00:24:16.531Z,100724.23
2018-10-06T00:26:47.140Z,100728.70
2018-10-06T00:29:21.097Z,100723.23
2018-10-06T00:31:51.544Z,100716.44
2018-10-06T00:34:21.964Z,100714.20
2018-10-06T00:36:52.381Z,100712.45
2018-10-06T00:39:22.790Z,100711.47
2018-10-06T00:41:53.296Z,100714.70
2018-10-06T00:44:23.781Z,100710.25
2018-10-06T00:46:54.353Z,100704.60
2018-10-06T00:49:24.868Z,100709.17
2018-10-06T00:51:55.452Z,100709.28
2018-10-06T00:54:34.264Z,100704.10
2018-10-06T00:57:04.813Z,100704.25
2018-10-06T00:59:35.160Z,100699.28
2018-10-06T01:02:05.624Z,100700.39
2018-10-06T01:04:35.820Z,100700.76
2018-10-06T01:07:06.294Z,100698.56
2018-10-06T01:09:36.755Z,100692.62
2018-10-06T01:12:07.178Z,100693.12
2018-10-06T01:14:37.684Z,100685.90
2018-10-06T01:17:08.341Z,100683.49
2018-10-06T01:19:38.727Z,100680.58
2018-10-06T01:22:09.070Z,100676.98
2018-10-06T01:24:39.344Z,100675.83
2018-10-06T01:27:09.869Z,100670.76
2018-10-06T01:29:40.332Z,100661.08
2018-10-06T01:32:10.728Z,100669.42
2018-10-06T01:34:40.809Z,100665.61
2018-10-06T01:37:11.225Z,100661.40
2018-10-06T01:39:41.723Z,100659.89
2018-10-06T01:42:12.349Z,100659.78
2018-10-06T01:44:42.942Z,100655.58
2018-10-06T01:47:13.479Z,100660.80
2018-10-06T01:49:43.671Z,100657.23
2018-10-06T01:52:14.132Z,100649.25
2018-10-06T01:54:44.512Z,100655.69
2018-10-06T01:57:15.107Z,100646.73
2018-10-06T01:59:45.799Z,100649.40
2018-10-06T02:02:16.132Z,100645.52
2018-10-06T02:04:46.529Z,100640.73
2018-10-06T02:07:16.995Z,100640.59
2018-10-06T02:09:47.408Z,100639.69
2018-10-06T02:12:17.917Z,100639.62
2018-10-06T02:14:48.495Z,100641.55
2018-10-06T02:17:18.700Z,100636.70
2018-10-06T02:19:49.125Z,100632.17
2018-10-06T02:22:19.515Z,100635.80
2018-10-06T02:24:50.211Z,100630.23
2018-10-06T02:27:20.681Z,100628.91
2018-10-06T02:29:50.980Z,100625.59
2018-10-06T02:32:21.424Z,100624.55
2018-10-06T02:34:51.923Z,100619.13
2018-10-06T02:37:22.332Z,100616.20
2018-10-06T02:39:52.761Z,100620.99
2018-10-06T02:42:23.177Z,100618.94
2018-10-06T02:44:53.596Z,100620.28
2018-10-06T02:47:24.223Z,100618.94
2018-10-06T02:49:54.512Z,100615.64
2018-10-06T02:52:24.905Z,100617.66
2018-10-06T02:54:55.274Z,100617.61
2018-10-06T02:57:25.685Z,100613.59
2018-10-06T02:59:56.032Z,100617.36
2018-10-06T03:02:26.411Z,100608.09
2018-10-06T03:04:56.804Z,100607.37
2018-10-06T03:07:27.181Z,100605.67
2018-10-06T03:09:57.440Z,100604.23
2018-10-06T03:12:27.910Z,100609.66
2018-10-06T03:14:58.208Z,100606.78
2018-10-06T03:17:28.572Z,100604.84
2018-10-06T03:19:58.959Z,100612.70
2018-10-06T03:22:29.396Z,100613.02
2018-10-06T03:24:59.848Z,100600.61
2018-10-06T03:27:30.399Z,100601.12
2018-10-06T03:30:00.799Z,100595.91
2018-10-06T03:32:31.092Z,100593.73
2018-10-06T03:35:01.530Z,100585.95
2018-10-06T03:37:31.910Z,100582.30
2018-10-06T03:40:02.328Z,100583.88
2018-10-06T03:42:32.780Z,100582.53
2018-10-06T03:45:03.072Z,100585.16
2018-10-06T03:47:33.616Z,100586.95
2018-10-06T03:50:03.819Z,100578.86
2018-10-06T03:52:34.063Z,100582.58
2018-10-06T03:55:04.495Z,100582.80
2018-10-06T03:57:34.952Z,100580.48
2018-10-06T04:00:05.661Z,100576.18
2018-10-06T04:02:36.161Z,100574.86
2018-10-06T04:05:06.749Z,100570.91
2018-10-06T04:07:37.295Z,100570.34
2018-10-06T04:10:07.689Z,100554.70
2018-10-06T04:12:38.128Z,100546.39
2018-10-06T04:15:08.861Z,100546.79
2018-10-06T04:17:39.308Z,100542.52
2018-10-06T04:20:10.202Z,100545.76
2018-10-06T04:22:40.692Z,100542.56
2018-10-06T04:25:11.297Z,100543.46
2018-10-06T04:27:41.764Z,100542.74
2018-10-06T04:30:12.365Z,100539.47
2018-10-06T04:32:43.336Z,100541.41
2018-10-06T04:35:13.948Z,100539.80
2018-10-06T04:37:44.278Z,100538.33
2018-10-06T04:40:14.691Z,100535.67
2018-10-06T04:42:45.046Z,100534.52
2018-10-06T04:45:15.373Z,100531.14
2018-10-06T04:47:45.602Z,100528.63
2018-10-06T04:50:16.115Z,100530.64
2018-10-06T04:52:46.566Z,100526.69
2018-10-06T04:55:16.967Z,100519.07
2018-10-06T04:57:47.448Z,100530.20
2018-10-06T05:00:17.899Z,100526.69
2018-10-06T05:02:48.372Z,100527.98
2018-10-06T05:05:18.895Z,100534.09
2018-10-06T05:07:49.272Z,100523.45
2018-10-06T05:10:19.971Z,100528.23
2018-10-06T05:12:50.551Z,100528.66
2018-10-06T05:15:21.024Z,100525.42
2018-10-06T05:17:51.486Z,100521.11
2018-10-06T05:20:21.995Z,100517.59
2018-10-06T05:22:52.655Z,100511.05
2018-10-06T05:25:23.164Z,100509.72
2018-10-06T05:27:53.659Z,100509.64
2018-10-06T05:30:23.935Z,100506.44
2018-10-06T05:32:54.263Z,100505.78
2018-10-06T05:35:24.982Z,100501.10
2018-10-06T05:37:55.456Z,100493.58
2018-10-06T05:40:25.893Z,100494.72
2018-10-06T05:42:56.432Z,100499.62
2018-10-06T05:45:26.820Z,100500.92
2018-10-06T05:47:57.181Z,100498.99
2018-10-06T05:50:27.668Z,100490.00
2018-10-06T05:52:58.152Z,100496.39
2018-10-06T05:55:28.520Z,100505.77
2018-10-06T05:57:59.799Z,100509.16
2018-10-06T06:00:30.663Z,100504.73
2018-10-06T06:03:00.997Z,100503.15
2018-10-06T06:05:31.272Z,100508.33
2018-10-06T06:08:01.644Z,100512.71
2018-10-06T06:10:32.144Z,100511.69
2018-10-06T06:13:02.519Z,100519.48
2018-10-06T06:15:32.827Z,100515.94
2018-10-06T06:18:03.144Z,100514.13
2018-10-06T06:20:33.575Z,100515.46
2018-10-06T06:23:04.454Z,100516.28
2018-10-06T06:25:34.832Z,100515.92
2018-10-06T06:28:05.183Z,100515.39
2018-10-06T06:30:35.467Z,100519.70
2018-10-06T06:33:06.570Z,100522.23
2018-10-06T06:35:36.934Z,100516.47
2018-10-06T06:38:07.505Z,100519.88
2018-10-06T06:40:38.032Z,100519.42
2018-10-06T06:43:08.664Z,100523.91
2018-10-06T06:45:38.871Z,100519.05
2018-10-06T06:48:09.257Z,100516.41
2018-10-06T06:50:39.672Z,100513.46
2018-10-06T06:53:10.028Z,100515.94
2018-10-06T06:55:40.504Z,100513.00
2018-10-06T06:58:11.454Z,100513.22
2018-10-06T07:00:41.787Z,100511.30
2018-10-06T07:03:12.249Z,100513.23
2018-10-06T07:05:42.686Z,100517.55
2018-10-06T07:08:13.013Z,100511.98
2018-10-06T07:10:43.271Z,100506.06
2018-10-06T07:13:13.711Z,100510.67
2018-10-06T07:15:44.434Z,100510.78
2018-10-06T07:18:14.836Z,100504.89
2018-10-06T07:20:45.343Z,100506.38
2018-10-06T07:23:15.674Z,100500.30
2018-10-06T07:25:45.968Z,100504.16
2018-10-06T07:28:16.361Z,100491.52
2018-10-06T07:30:46.848Z,100499.17
2018-10-06T07:33:17.635Z,100496.91
2018-10-06T07:35:48.131Z,100501.34
2018-10-06T07:38:18.385Z,100498.00
2018-10-06T07:40:48.774Z,100494.45
2018-10-06T07:43:19.282Z,100496.33
2018-10-06T07:45:49.860Z,100495.08
2018-10-06T07:48:20.314Z,100491.63
2018-10-06T07:50:52.016Z,100491.97
2018-10-06T07:53:22.283Z,100494.94
2018-10-06T07:55:52.643Z,100491.69
2018-10-06T07:58:23.275Z,100494.14
2018-10-06T08:00:53.757Z,100491.14
2018-10-06T08:03:24.114Z,100488.69
2018-10-06T08:05:54.379Z,100487.04
2018-10-06T08:08:24.784Z,100485.06
2018-10-06T08:10:55.193Z,100478.63
2018-10-06T08:13:25.510Z,100482.44
2018-10-06T08:15:55.908Z,100481.41
2018-10-06T08:18:26.328Z,100478.58
2018-10-06T08:20:56.800Z,100473.47
2018-10-06T08:23:27.284Z,100479.60
2018-10-06T08:25:57.572Z,100473.80
2018-10-06T08:28:28.027Z,100476.78
2018-10-06T08:30:59.133Z,100476.10
2018-10-06T08:33:29.595Z,100477.42
2018-10-06T08:35:59.995Z,100484.37
2018-10-06T08:38:30.256Z,100476.95
2018-10-06T08:41:00.625Z,100483.41
2018-10-06T08:43:31.119Z,100482.55
2018-10-06T08:46:02.096Z,100475.13
2018-10-06T08:48:32.655Z,100477.26
2018-10-06T08:51:03.097Z,100478.75
2018-10-06T08:53:33.576Z,100475.62
2018-10-06T08:56:03.873Z,100475.41
2018-10-06T08:58:34.302Z,100470.52
2018-10-06T09:01:04.806Z,100469.12
2018-10-06T09:03:35.310Z,100465.38
2018-10-06T09:06:05.907Z,100463.92
2018-10-06T09:08:36.554Z,100450.48
2018-10-06T09:11:06.994Z,100452.61
2018-10-06T09:13:37.410Z,100448.30
2018-10-06T09:16:08.000Z,100455.29
2018-10-06T09:18:38.973Z,100445.81
2018-10-06T09:21:09.308Z,100452.39
2018-10-06T09:24:01.914Z,100443.59
2018-10-06T09:26:32.344Z,100442.12
2018-10-06T09:29:02.791Z,100436.80
2018-10-06T09:31:33.123Z,100437.28
2018-10-06T09:34:03.700Z,100431.97
2018-10-06T09:36:34.159Z,100428.23
2018-10-06T09:39:06.027Z,100424.17
2018-10-06T09:41:36.396Z,100417.26
2018-10-06T09:44:06.951Z,100413.08
2018-10-06T09:46:37.446Z,100422.78
2018-10-06T09:49:07.867Z,100413.30
2018-10-06T09:51:38.317Z,100406.27
2018-10-06T09:54:08.756Z,100410.53
2018-10-06T09:56:39.171Z,100416.87
2018-10-06T09:59:09.731Z,100407.64
2018-10-06T10:01:45.080Z,100412.52
2018-10-06T10:04:16.940Z,100406.37
2018-10-06T10:06:47.776Z,100403.39
2018-10-06T10:09:18.085Z,100405.66
2018-10-06T10:11:48.416Z,100401.51
2018-10-06T10:14:18.881Z,100400.10
2018-10-06T10:16:49.275Z,100394.61
2018-10-06T10:19:19.825Z,100389.73
2018-10-06T10:21:50.232Z,100381.22
2018-10-06T10:24:21.585Z,100381.64
2018-10-06T10:26:52.095Z,100370.45
2018-10-06T10:29:22.455Z,100368.80
2018-10-06T10:31:53.059Z,100363.09
2018-10-06T10:34:23.364Z,100357.38
2018-10-06T10:36:53.696Z,100354.44
2018-10-06T10:39:24.211Z,100353.34
2018-10-06T10:41:54.579Z,100356.49
2018-10-06T10:44:25.133Z,100352.92
2018-10-06T10:46:55.324Z,100350.39
2018-10-06T10:49:25.971Z,100351.60
2018-10-06T10:51:56.374Z,100348.33
2018-10-06T10:54:26.884Z,100337.34
2018-10-06T10:56:57.488Z,100333.97
2018-10-06T10:59:27.904Z,100335.19
2018-10-06T11:01:58.340Z,100333.02
2018-10-06T11:04:28.912Z,100335.86
2018-10-06T11:06:59.406Z,100333.39
2018-10-06T11:09:29.775Z,100330.77
2018-10-06T11:12:00.224Z,100331.11
2018-10-06T11:14:30.827Z,100325.14
2018-10-06T11:17:01.256Z,100321.86
2018-10-06T11:19:31.919Z,100323.02
2018-10-06T11:22:02.609Z,100321.20
2018-10-06T11:24:33.166Z,100317.91
2018-10-06T11:27:03.481Z,100318.11
2018-10-06T11:29:33.816Z,100317.27
2018-10-06T11:32:04.225Z,100311.61
2018-10-06T11:34:34.712Z,100311.61
2018-10-06T11:37:05.080Z,100301.36
2018-10-06T11:39:35.540Z,100302.04
2018-10-06T11:42:05.998Z,100299.39
2018-10-06T11:44:41.754Z,100299.69
2018-10-06T11:47:12.478Z,100289.45
2018-10-06T11:49:43.625Z,100287.48
2018-10-06T11:52:14.011Z,100285.66
2018-10-06T11:54:44.619Z,100278.73
2018-10-06T11:57:15.203Z,100281.53
2018-10-06T11:59:45.517Z,100275.91
2018-10-06T12:02:24.357Z,100279.86
2018-10-06T12:05:01.735Z,100277.87
2018-10-06T12:07:32.493Z,100272.58
2018-10-06T12:10:02.917Z,100267.44
2018-10-06T12:12:33.430Z,100262.51
2018-10-06T12:15:03.954Z,100260.01
2018-10-06T12:17:34.290Z,100262.70
2018-10-06T12:20:04.839Z,100253.11
2018-10-06T12:22:35.133Z,100254.77
2018-10-06T12:25:05.715Z,100248.46
2018-10-06T12:27:35.875Z,100246.93
2018-10-06T12:30:06.382Z,100238.70
2018-10-06T12:32:36.740Z,100240.87
2018-10-06T12:35:07.531Z,100235.22
2018-10-06T12:37:38.267Z,100233.10
2018-10-06T12:40:08.727Z,100237.86
2018-10-06T12:42:39.205Z,100244.16
2018-10-06T12:45:09.692Z,100234.93
2018-10-06T12:47:39.959Z,100240.05
2018-10-06T12:50:14.755Z,100234.22
2018-10-06T12:52:52.811Z,100230.07
2018-10-06T12:55:29.368Z,100226.95
2018-10-06T12:58:00.241Z,100220.17
2018-10-06T13:00:33.296Z,100216.02
2018-10-06T13:03:11.833Z,100212.22
2018-10-06T13:05:42.276Z,100204.10
2018-10-06T13:08:12.777Z,100200.13
2018-10-06T13:10:43.664Z,100196.78
2018-10-06T13:13:14.125Z,100192.16
2018-10-06T13:15:52.449Z,100187.39
2018-10-06T13:18:28.733Z,100188.45
2018-10-06T13:21:02.292Z,100194.05
2018-10-06T13:23:32.740Z,100191.58
2018-10-06T13:26:14.649Z,100189.59
2018-10-06T13:29:11.710Z,100180.31
2018-10-06T13:31:42.147Z,100188.55
2018-10-06T13:34:12.342Z,100184.86
2018-10-06T13:36:42.807Z,100183.59
2018-10-06T13:39:13.194Z,100180.28
2018-10-06T13:41:43.684Z,100180.89
2018-10-06T13:44:14.291Z,100177.47
2018-10-06T13:46:44.845Z,100177.82
2018-10-06T13:49:15.140Z,100170.70
2018-10-06T13:51:45.803Z,100170.84
2018-10-06T13:54:16.323Z,100169.83
2018-10-06T13:56:47.007Z,100162.41
2018-10-06T13:59:17.589Z,100156.78
2018-10-06T14:01:47.839Z,100149.05
2018-10-06T14:04:18.345Z,100150.83
2018-10-06T14:06:48.895Z,100151.00
2018-10-06T14:09:19.301Z,100152.48
2018-10-06T14:11:49.767Z,100145.35
2018-10-06T14:14:20.263Z,100140.77
2018-10-06T14:16:50.575Z,100141.06
2018-10-06T14:19:20.915Z,100140.39
2018-10-06T14:21:51.291Z,100143.08
2018-10-06T14:24:21.684Z,100136.84
2018-10-06T14:26:52.064Z,100140.30
2018-10-06T14:29:22.517Z,100140.32
2018-10-06T14:31:52.996Z,100135.55
2018-10-06T14:34:23.509Z,100135.67
2018-10-06T14:36:53.993Z,100130.09
2018-10-06T14:39:24.584Z,100125.76
2018-10-06T14:44:55.486Z,100121.62
2018-10-06T14:47:26.117Z,100119.80
2018-10-06T14:49:57.459Z,100117.16
2018-10-06T14:52:27.769Z,100116.34
2018-10-06T14:54:58.215Z,100115.19
2018-10-06T14:57:29.497Z,100111.24
2018-10-06T14:59:59.979Z,100108.41
2018-10-06T15:02:30.443Z,100102.78
2018-10-06T15:05:00.884Z,100098.52
2018-10-06T15:07:31.535Z,100092.20
2018-10-06T15:10:01.776Z,100093.53
2018-10-06T15:12:32.213Z,100092.73
2018-10-06T15:15:03.419Z,100099.34
2018-10-06T15:17:33.788Z,100095.03
2018-10-06T15:20:04.384Z,100090.27
2018-10-06T15:22:34.724Z,100094.91
2018-10-06T15:25:05.354Z,100091.96
2018-10-06T15:27:35.850Z,100088.98
2018-10-06T15:30:06.795Z,100087.17
2018-10-06T15:32:37.645Z,100087.70
2018-10-06T15:35:08.207Z,100090.31
2018-10-06T15:37:38.775Z,100083.20
2018-10-06T15:40:09.109Z,100074.29
2018-10-06T15:42:39.506Z,100085.81
2018-10-06T15:45:10.447Z,100082.65
2018-10-06T15:47:40.763Z,100081.14
2018-10-06T15:50:11.399Z,100077.84
2018-10-06T15:52:41.851Z,100076.98
2018-10-06T15:55:12.252Z,100083.55
2018-10-06T15:57:42.716Z,100082.69
2018-10-06T16:00:13.105Z,100076.39
2018-10-06T16:02:43.554Z,100084.59
2018-10-06T16:05:14.066Z,100079.27
2018-10-06T16:07:44.419Z,100078.86
2018-10-06T16:10:14.800Z,100083.27
2018-10-06T16:12:45.106Z,100079.16
2018-10-06T16:15:15.575Z,100081.24
2018-10-06T16:17:46.047Z,100079.55
2018-10-06T16:20:16.548Z,100088.56
2018-10-06T16:22:46.929Z,100079.00
2018-10-06T16:25:17.520Z,100077.28
2018-10-06T16:27:47.987Z,100077.28
2018-10-06T16:30:18.255Z,100078.17
2018-10-06T16:32:48.742Z,100080.11
2018-10-06T16:35:19.228Z,100079.98
2018-10-06T16:37:49.633Z,100076.09
2018-10-06T16:40:20.348Z,100076.31
2018-10-06T16:42:50.543Z,100074.66
2018-10-06T16:45:21.036Z,100072.06
2018-10-06T16:47:51.416Z,100072.21
2018-10-06T16:50:21.916Z,100067.59
2018-10-06T16:52:52.418Z,100074.17
2018-10-06T16:55:22.934Z,100077.63
2018-10-06T16:57:53.460Z,100083.58
2018-10-06T17:00:24.165Z,100082.77
2018-10-06T17:02:54.669Z,100088.73
2018-10-06T17:05:25.252Z,100082.66
2018-10-06T17:07:56.189Z,100084.47
2018-10-06T17:10:26.697Z,100084.03
2018-10-06T17:12:57.262Z,100081.13
2018-10-06T17:15:27.711Z,100078.73
2018-10-06T17:17:58.013Z,100086.89
2018-10-06T17:20:28.492Z,100080.25
2018-10-06T17:22:58.987Z,100079.23
2018-10-06T17:25:29.485Z,100087.11
2018-10-06T17:27:59.987Z,100087.93
2018-10-06T17:30:30.351Z,100082.39
2018-10-06T17:33:00.727Z,100081.44
2018-10-06T17:35:31.863Z,100080.33
2018-10-06T17:38:02.199Z,100080.62
2018-10-06T17:40:32.697Z,100077.70
2018-10-06T17:43:03.336Z,100079.09
2018-10-06T17:45:33.933Z,100078.94
2018-10-06T17:48:04.517Z,100082.66
2018-10-06T17:50:35.214Z,100086.66
2018-10-06T17:53:05.700Z,100083.72
2018-10-06T17:55:36.187Z,100085.20
2018-10-06T17:58:06.724Z,100084.26
2018-10-06T18:00:37.246Z,100084.26
2018-10-06T18:03:07.698Z,100088.21
2018-10-06T18:05:38.067Z,100086.69
2018-10-06T18:08:08.595Z,100088.22
2018-10-06T18:10:39.123Z,100090.77
2018-10-06T18:13:09.333Z,100094.84
2018-10-06T18:15:39.842Z,100088.82
2018-10-06T18:18:10.327Z,100098.58
2018-10-06T18:20:40.912Z,100094.99
2018-10-06T18:23:11.390Z,100091.13
2018-10-06T18:25:42.191Z,100088.89
2018-10-06T18:28:12.651Z,100093.25
2018-10-06T18:30:43.040Z,100091.30
2018-10-06T18:33:13.823Z,100095.59
2018-10-06T18:35:44.162Z,100097.05
2018-10-06T18:38:14.580Z,100101.34
2018-10-06T18:40:45.043Z,100100.34
2018-10-06T18:43:15.589Z,100103.89
2018-10-06T18:45:45.937Z,100109.20
2018-10-06T18:48:16.316Z,100112.26
2018-10-06T18:50:46.665Z,100115.84
2018-10-06T18:53:17.045Z,100116.61
2018-10-06T18:55:47.623Z,100120.25
2018-10-06T18:58:18.039Z,100126.66
2018-10-06T19:00:48.499Z,100127.33
2018-10-06T19:03:19.036Z,100128.20
2018-10-06T19:05:49.714Z,100131.11
2018-10-06T19:08:20.677Z,100131.66
2018-10-06T19:10:51.148Z,100135.51
2018-10-06T19:13:21.641Z,100143.80
2018-10-06T19:15:51.859Z,100141.72
2018-10-06T19:18:22.083Z,100143.58
2018-10-06T19:20:52.664Z,100142.23
2018-10-06T19:23:23.060Z,100147.20
2018-10-06T19:25:53.294Z,100145.34
2018-10-06T19:28:23.695Z,100149.88
2018-10-06T19:30:54.284Z,100148.70
2018-10-06T19:33:25.050Z,100152.27
2018-10-06T19:35:55.557Z,100153.67
2018-10-06T19:38:25.975Z,100162.58
2018-10-06T19:40:56.434Z,100157.78
2018-10-06T19:43:26.717Z,100159.91
2018-10-06T19:45:57.869Z,100154.02
2018-10-06T19:48:28.247Z,100158.48
2018-10-06T19:50:58.844Z,100154.27
2018-10-06T19:53:29.253Z,100162.87
2018-10-06T19:55:59.885Z,100160.88
2018-10-06T19:58:30.371Z,100162.34
2018-10-06T20:01:00.660Z,100162.95
2018-10-06T20:03:31.023Z,100171.78
2018-10-06T20:06:01.680Z,100166.47
2018-10-06T20:08:34.078Z,100171.94
2018-10-06T20:11:04.644Z,100173.88
2018-10-06T20:13:35.062Z,100172.45
2018-10-06T20:16:05.647Z,100167.23
2018-10-06T20:18:36.137Z,100171.42
2018-10-06T20:21:06.466Z,100173.67
2018-10-06T20:23:37.372Z,100172.10
2018-10-06T20:26:08.170Z,100169.98
2018-10-06T20:28:38.552Z,100177.59
2018-10-06T20:31:09.035Z,100172.25
2018-10-06T20:33:39.414Z,100180.42
2018-10-06T20:36:10.092Z,100181.49
2018-10-06T20:38:40.577Z,100181.98
2018-10-06T20:41:10.976Z,100188.72
2018-10-06T20:43:41.315Z,100187.54
2018-10-06T20:46:11.826Z,100189.91
2018-10-06T20:48:42.112Z,100189.16
2018-10-06T20:51:12.612Z,100192.02
2018-10-06T20:53:42.951Z,100188.33
2018-10-06T20:56:13.476Z,100187.84
2018-10-06T20:58:43.800Z,100190.69
2018-10-06T21:01:14.207Z,100184.98
2018-10-06T21:03:44.763Z,100197.09
2018-10-06T21:06:15.040Z,100190.56
2018-10-06T21:08:45.404Z,100188.64
2018-10-06T21:11:15.997Z,100194.58
2018-10-06T21:13:46.476Z,100197.06
2018-10-06T21:16:16.907Z,100196.45
2018-10-06T21:18:47.243Z,100199.99
2018-10-06T21:21:17.759Z,100193.00
2018-10-06T21:23:48.211Z,100200.91
2018-10-06T21:26:18.731Z,100194.98
2018-10-06T21:28:49.714Z,100192.95
2018-10-06T21:31:20.167Z,100193.63
2018-10-06T21:33:50.675Z,100193.27
2018-10-06T21:36:21.092Z,100192.08
2018-10-06T21:38:52.365Z,100197.64
2018-10-06T21:41:22.833Z,100195.72
2018-10-06T21:43:53.220Z,100194.41
2018-10-06T21:46:23.868Z,100194.05
2018-10-06T21:48:54.034Z,100193.54
2018-10-06T21:51:24.421Z,100191.16
2018-10-06T21:53:54.835Z,100194.14
2018-10-06T21:56:25.212Z,100190.91
2018-10-06T21:58:55.543Z,100191.95
2018-10-06T22:01:26.047Z,100189.58
2018-10-06T22:03:57.048Z,100205.09
2018-10-06T22:06:27.536Z,100200.36
2018-10-06T22:08:58.004Z,100196.30
2018-10-06T22:11:28.631Z,100189.41
2018-10-06T22:13:59.110Z,100194.23
2018-10-06T22:16:30.290Z,100191.70
2018-10-06T22:19:00.774Z,100187.25
2018-10-06T22:21:31.238Z,100193.14
2018-10-06T22:24:01.509Z,100188.90
2018-10-06T22:26:31.991Z,100192.55
2018-10-06T22:29:02.472Z,100193.85
2018-10-06T22:31:33.346Z,100194.63
2018-10-06T22:34:03.773Z,100194.63
2018-10-06T22:36:34.932Z,100194.14
2018-10-06T22:39:06.416Z,100186.52
2018-10-06T22:41:36.753Z,100197.05
2018-10-06T22:44:07.181Z,100195.41
2018-10-06T22:46:37.843Z,100198.09
2018-10-06T22:49:08.396Z,100203.78
2018-10-06T22:51:38.901Z,100203.63
2018-10-06T22:54:09.472Z,100200.39
2018-10-06T22:56:39.709Z,100203.70
2018-10-06T22:59:10.125Z,100202.13
2018-10-06T23:01:40.586Z,100197.95
2018-10-06T23:04:11.183Z,100196.39
2018-10-06T23:06:41.699Z,100197.72
2018-10-06T23:09:12.846Z,100195.12
2018-10-06T23:11:43.455Z,100191.58
2018-10-06T23:14:13.845Z,100192.36
2018-10-06T23:16:44.380Z,100197.20
2018-10-06T23:19:14.777Z,100201.42
2018-10-06T23:21:45.148Z,100200.89
2018-10-06T23:24:15.474Z,100206.77
2018-10-06T23:26:45.828Z,100205.30
2018-10-06T23:29:16.090Z,100213.91
2018-10-06T23:31:46.601Z,100218.00
2018-10-06T23:34:17.102Z,100216.91
2018-10-06T23:36:47.774Z,100221.39
2018-10-06T23:39:18.348Z,100226.52
2018-10-06T23:41:49.265Z,100231.20
2018-10-06T23:44:19.722Z,100235.66
2018-10-06T23:46:50.075Z,100246.83
2018-10-06T23:49:20.464Z,100249.61
2018-10-06T23:51:50.948Z,100248.23
2018-10-06T23:54:21.357Z,100248.95
2018-10-06T23:56:51.765Z,100256.77
2018-10-06T23:59:22.146Z,100256.72
